createdAt,value
2018-09-23T00:00:28.467Z,13.70
2018-09-23T00:02:56.873Z,13.70
2018-09-23T00:05:25.257Z,13.80
2018-09-23T00:07:53.577Z,13.70
2018-09-23T00:10:21.860Z,13.80
2018-09-23T00:12:50.277Z,13.80
2018-09-23T00:15:21.673Z,13.80
2018-09-23T00:17:50.011Z,13.80
2018-09-23T00:20:18.376Z,13.80
2018-09-23T00:22:46.707Z,13.70
2018-09-23T00:25:15.020Z,13.70
2018-09-23T00:27:43.393Z,13.70
2018-09-23T00:30:11.788Z,13.80
2018-09-23T00:32:40.151Z,13.80
2018-09-23T00:35:08.590Z,13.70
2018-09-23T00:37:36.924Z,13.50
2018-09-23T00:40:06.014Z,13.60
2018-09-23T00:42:34.384Z,13.60
2018-09-23T00:45:02.787Z,13.60
2018-09-23T00:47:31.153Z,13.50
2018-09-23T00:49:59.443Z,13.50
2018-09-23T00:52:27.825Z,13.50
2018-09-23T00:54:56.184Z,13.50
2018-09-23T00:57:28.619Z,13.50
2018-09-23T01:00:01.020Z,13.50
2018-09-23T01:02:29.485Z,13.30
2018-09-23T01:04:57.756Z,13.30
2018-09-23T01:07:26.048Z,13.30
2018-09-23T01:09:54.431Z,13.40
2018-09-23T01:12:22.686Z,13.40
2018-09-23T01:14:50.986Z,13.50
2018-09-23T01:17:19.344Z,13.50
2018-09-23T01:19:47.705Z,13.50
2018-09-23T01:22:16.029Z,13.50
2018-09-23T01:24:44.431Z,13.50
2018-09-23T01:27:12.768Z,13.50
2018-09-23T01:29:41.056Z,13.50
2018-09-23T01:32:09.500Z,13.40
2018-09-23T01:34:37.793Z,13.30
2018-09-23T01:37:06.157Z,13.30
2018-09-23T01:39:34.487Z,13.30
2018-09-23T01:42:02.829Z,13.20
2018-09-23T01:44:31.177Z,13.20
2018-09-23T01:46:59.497Z,13.20
2018-09-23T01:49:27.791Z,13.20
2018-09-23T01:51:56.151Z,13.10
2018-09-23T01:54:24.558Z,13.10
2018-09-23T01:56:52.947Z,13.10
2018-09-23T01:59:21.344Z,13.10
2018-09-23T02:01:49.657Z,13.10
2018-09-23T02:04:18.001Z,13.20
2018-09-23T02:06:46.327Z,13.20
2018-09-23T02:09:14.711Z,13.00
2018-09-23T02:11:43.100Z,13.00
2018-09-23T02:14:11.525Z,12.90
2018-09-23T02:16:39.876Z,12.80
2018-09-23T02:19:08.221Z,12.90
2018-09-23T02:21:36.871Z,13.00
2018-09-23T02:24:05.176Z,13.10
2018-09-23T02:26:33.560Z,13.10
2018-09-23T02:29:02.210Z,13.10
2018-09-23T02:31:30.521Z,13.10
2018-09-23T02:33:58.906Z,13.20
2018-09-23T02:36:27.190Z,13.20
2018-09-23T02:38:55.558Z,13.10
2018-09-23T02:41:23.877Z,12.90
2018-09-23T02:43:52.225Z,12.90
2018-09-23T02:46:20.607Z,12.90
2018-09-23T02:48:48.982Z,12.80
2018-09-23T02:51:17.418Z,12.90
2018-09-23T02:53:45.773Z,12.80
2018-09-23T02:56:14.129Z,12.80
2018-09-23T02:58:42.504Z,12.90
2018-09-23T03:01:10.874Z,12.90
2018-09-23T03:03:39.269Z,12.80
2018-09-23T03:06:07.661Z,12.90
2018-09-23T03:08:36.002Z,12.90
2018-09-23T03:11:04.293Z,12.90
2018-09-23T03:13:32.658Z,12.90
2018-09-23T03:16:07.442Z,12.90
2018-09-23T03:18:35.823Z,13.00
2018-09-23T03:21:04.201Z,12.90
2018-09-23T03:23:32.561Z,12.90
2018-09-23T03:26:00.961Z,12.80
2018-09-23T03:28:29.386Z,12.80
2018-09-23T03:30:57.714Z,12.80
2018-09-23T03:33:26.069Z,12.70
2018-09-23T03:35:54.473Z,12.70
2018-09-23T03:38:22.839Z,12.70
2018-09-23T03:40:51.248Z,12.70
2018-09-23T03:43:19.578Z,12.70
2018-09-23T03:45:47.977Z,12.70
2018-09-23T03:48:16.363Z,12.70
2018-09-23T03:50:44.745Z,12.70
2018-09-23T03:53:13.108Z,12.80
2018-09-23T03:55:41.501Z,12.70
2018-09-23T03:58:09.896Z,12.70
2018-09-23T04:00:38.372Z,12.60
2018-09-23T04:03:07.037Z,12.60
2018-09-23T04:05:36.355Z,12.60
2018-09-23T04:08:04.698Z,12.70
2018-09-23T04:10:33.112Z,12.70
2018-09-23T04:13:01.453Z,12.50
2018-09-23T04:15:29.898Z,12.40
2018-09-23T04:17:58.213Z,12.40
2018-09-23T04:20:26.720Z,12.40
2018-09-23T04:22:55.116Z,12.50
2018-09-23T04:25:23.460Z,12.40
2018-09-23T04:27:52.159Z,12.30
2018-09-23T04:30:21.572Z,12.30
2018-09-23T04:32:50.449Z,12.30
2018-09-23T04:35:19.286Z,12.30
2018-09-23T04:37:48.083Z,12.30
2018-09-23T04:40:16.406Z,12.40
2018-09-23T04:42:45.714Z,12.30
2018-09-23T04:45:13.991Z,12.40
2018-09-23T04:47:42.424Z,12.30
2018-09-23T04:50:10.783Z,12.30
2018-09-23T04:52:39.247Z,12.10
2018-09-23T04:55:07.668Z,12.00
2018-09-23T04:57:35.981Z,12.00
2018-09-23T05:00:05.305Z,11.90
2018-09-23T05:02:33.653Z,11.90
2018-09-23T05:05:02.063Z,11.70
2018-09-23T05:07:30.437Z,11.50
2018-09-23T05:10:00.037Z,11.40
2018-09-23T05:12:28.424Z,11.50
2018-09-23T05:14:57.036Z,11.60
2018-09-23T05:17:25.391Z,11.60
2018-09-23T05:19:53.722Z,11.60
2018-09-23T05:22:22.102Z,11.60
2018-09-23T05:24:50.369Z,11.60
2018-09-23T05:27:18.772Z,11.60
2018-09-23T05:29:47.160Z,11.60
2018-09-23T05:32:16.484Z,11.70
2018-09-23T05:34:45.843Z,11.60
2018-09-23T05:37:14.252Z,11.70
2018-09-23T05:39:42.628Z,11.60
2018-09-23T05:42:11.273Z,11.50
2018-09-23T05:44:39.554Z,11.50
2018-09-23T05:47:09.014Z,11.50
2018-09-23T05:49:37.619Z,11.40
2018-09-23T05:52:07.251Z,11.40
2018-09-23T05:54:35.548Z,11.50
2018-09-23T05:57:03.901Z,11.50
2018-09-23T05:59:33.234Z,11.50
2018-09-23T06:02:01.609Z,11.50
2018-09-23T06:04:30.949Z,11.60
2018-09-23T06:06:59.403Z,11.50
2018-09-23T06:09:27.786Z,11.60
2018-09-23T06:11:57.136Z,11.60
2018-09-23T06:14:25.846Z,11.60
2018-09-23T06:16:56.071Z,11.60
2018-09-23T06:19:26.464Z,11.50
2018-09-23T06:21:54.890Z,11.50
2018-09-23T06:24:23.323Z,11.50
2018-09-23T06:26:51.698Z,11.50
2018-09-23T06:29:22.140Z,11.70
2018-09-23T06:31:50.454Z,11.70
2018-09-23T06:34:19.790Z,11.80
2018-09-23T06:36:48.152Z,11.80
2018-09-23T06:39:16.609Z,11.80
2018-09-23T06:41:45.920Z,11.80
2018-09-23T06:44:14.317Z,11.80
2018-09-23T06:46:42.763Z,11.80
2018-09-23T06:49:12.119Z,11.70
2018-09-23T06:51:40.483Z,11.80
2018-09-23T06:54:08.887Z,11.70
2018-09-23T06:56:37.271Z,11.80
2018-09-23T06:59:05.661Z,11.80
2018-09-23T07:01:33.979Z,11.90
2018-09-23T07:04:03.044Z,11.90
2018-09-23T07:06:31.360Z,12.00
2018-09-23T07:09:00.800Z,11.90
2018-09-23T07:11:30.157Z,11.90
2018-09-23T07:13:58.553Z,11.90
2018-09-23T07:16:26.937Z,11.90
2018-09-23T07:18:55.315Z,12.00
2018-09-23T07:21:23.671Z,12.00
2018-09-23T07:23:53.109Z,12.00
2018-09-23T07:26:21.466Z,12.00
2018-09-23T07:28:49.866Z,11.90
2018-09-23T07:31:18.436Z,12.00
2018-09-23T07:33:46.647Z,12.00
2018-09-23T07:36:14.997Z,12.00
2018-09-23T07:38:43.376Z,12.00
2018-09-23T07:41:11.777Z,12.10
2018-09-23T07:43:40.108Z,12.00
2018-09-23T07:46:08.554Z,12.10
2018-09-23T07:48:36.896Z,12.10
2018-09-23T07:51:05.367Z,12.10
2018-09-23T07:53:33.850Z,12.20
2018-09-23T07:56:02.211Z,12.20
2018-09-23T07:58:30.589Z,12.30
2018-09-23T08:00:58.958Z,12.30
2018-09-23T08:03:27.457Z,12.40
2018-09-23T08:05:55.831Z,12.40
2018-09-23T08:08:24.290Z,12.40
2018-09-23T08:10:53.700Z,12.40
2018-09-23T08:13:22.300Z,12.50
2018-09-23T08:15:50.618Z,12.50
2018-09-23T08:18:19.004Z,12.50
2018-09-23T08:20:47.408Z,12.60
2018-09-23T08:23:15.820Z,12.60
2018-09-23T08:25:44.210Z,12.70
2018-09-23T08:28:12.601Z,12.70
2018-09-23T08:30:41.035Z,12.70
2018-09-23T08:33:09.333Z,12.80
2018-09-23T08:35:37.725Z,12.90
2018-09-23T08:38:06.164Z,12.90
2018-09-23T08:40:34.501Z,13.00
2018-09-23T08:43:02.846Z,13.10
2018-09-23T08:45:31.281Z,13.10
2018-09-23T08:47:59.679Z,13.10
2018-09-23T08:50:28.085Z,13.10
2018-09-23T08:52:56.633Z,13.20
2018-09-23T08:55:24.966Z,13.30
2018-09-23T08:57:53.399Z,13.40
2018-09-23T09:00:21.788Z,13.40
2018-09-23T09:02:50.166Z,13.40
2018-09-23T09:05:18.584Z,13.50
2018-09-23T09:07:47.010Z,13.50
2018-09-23T09:10:15.398Z,13.70
2018-09-23T09:12:43.756Z,13.70
2018-09-23T09:15:12.255Z,13.70
2018-09-23T09:17:40.609Z,13.80
2018-09-23T09:20:09.004Z,13.90
2018-09-23T09:22:37.343Z,14.00
2018-09-23T09:25:05.782Z,14.10
2018-09-23T09:27:34.232Z,14.20
2018-09-23T09:30:02.760Z,14.30
2018-09-23T09:32:31.207Z,14.40
2018-09-23T09:34:59.556Z,14.50
2018-09-23T09:37:28.006Z,14.60
2018-09-23T09:39:56.422Z,14.70
2018-09-23T09:42:24.855Z,14.70
2018-09-23T09:44:53.295Z,14.80
2018-09-23T09:47:21.711Z,14.80
2018-09-23T09:49:50.230Z,14.90
2018-09-23T09:52:18.620Z,15.10
2018-09-23T09:54:47.038Z,15.50
2018-09-23T09:57:15.355Z,15.70
2018-09-23T09:59:43.792Z,15.90
2018-09-23T10:02:12.199Z,16.00
2018-09-23T10:04:40.647Z,16.10
2018-09-23T10:07:09.000Z,16.20
2018-09-23T10:09:37.402Z,16.30
2018-09-23T10:12:05.765Z,16.30
2018-09-23T10:14:34.272Z,16.30
2018-09-23T10:17:02.607Z,16.30
2018-09-23T10:19:31.060Z,16.30
2018-09-23T10:21:59.502Z,16.40
2018-09-23T10:24:27.838Z,16.40
2018-09-23T10:26:56.206Z,16.50
2018-09-23T10:29:24.692Z,16.60
2018-09-23T10:31:53.238Z,16.60
2018-09-23T10:34:21.419Z,16.70
2018-09-23T10:36:49.846Z,16.80
2018-09-23T10:39:18.214Z,16.90
2018-09-23T10:41:46.608Z,17.00
2018-09-23T10:44:15.041Z,17.00
2018-09-23T10:46:43.531Z,17.10
2018-09-23T10:49:12.043Z,17.10
2018-09-23T10:51:40.476Z,17.20
2018-09-23T10:54:08.790Z,17.20
2018-09-23T10:56:37.210Z,17.20
2018-09-23T10:59:05.594Z,17.30
2018-09-23T11:01:33.968Z,17.40
2018-09-23T11:04:02.481Z,17.50
2018-09-23T11:06:30.816Z,17.60
2018-09-23T11:08:59.168Z,17.60
2018-09-23T11:11:27.596Z,17.70
2018-09-23T11:13:56.104Z,17.80
2018-09-23T11:16:24.557Z,17.80
2018-09-23T11:18:52.945Z,17.80
2018-09-23T11:21:21.416Z,17.80
2018-09-23T11:23:52.649Z,17.80
2018-09-23T11:26:21.006Z,17.80
2018-09-23T11:28:50.456Z,17.80
2018-09-23T11:31:18.842Z,17.80
2018-09-23T11:33:47.179Z,17.80
2018-09-23T11:36:15.683Z,17.80
2018-09-23T11:38:44.015Z,17.80
2018-09-23T11:41:12.414Z,17.80
2018-09-23T11:43:40.782Z,17.80
2018-09-23T11:46:09.248Z,17.80
2018-09-23T11:48:37.679Z,17.80
2018-09-23T11:51:06.317Z,17.90
2018-09-23T11:53:35.586Z,18.00
2018-09-23T11:56:03.936Z,18.10
2018-09-23T11:58:32.376Z,18.20
2018-09-23T12:01:01.031Z,18.20
2018-09-23T12:03:29.739Z,18.20
2018-09-23T12:05:58.141Z,18.20
2018-09-23T12:08:26.507Z,18.20
2018-09-23T12:10:55.008Z,18.20
2018-09-23T12:13:23.283Z,18.30
2018-09-23T12:15:51.778Z,18.30
2018-09-23T12:18:20.197Z,18.40
2018-09-23T12:20:50.121Z,18.40
2018-09-23T12:23:18.594Z,18.40
2018-09-23T12:25:48.197Z,18.30
2018-09-23T12:28:16.478Z,18.30
2018-09-23T12:30:44.957Z,18.40
2018-09-23T12:33:14.076Z,18.50
2018-09-23T12:35:42.361Z,18.60
2018-09-23T12:38:10.816Z,18.70
2018-09-23T12:40:39.175Z,18.90
2018-09-23T12:43:08.582Z,19.00
2018-09-23T12:45:36.895Z,19.00
2018-09-23T12:48:05.317Z,19.20
2018-09-23T12:50:33.723Z,19.30
2018-09-23T12:53:02.024Z,19.30
2018-09-23T12:55:30.434Z,19.40
2018-09-23T12:57:58.810Z,19.40
2018-09-23T13:00:27.176Z,19.40
2018-09-23T13:02:55.599Z,19.50
2018-09-23T13:05:24.193Z,19.60
2018-09-23T13:07:52.538Z,19.80
2018-09-23T13:10:20.924Z,19.90
2018-09-23T13:12:49.286Z,20.00
2018-09-23T13:15:17.712Z,20.00
2018-09-23T13:17:46.361Z,20.30
2018-09-23T13:20:14.748Z,20.50
2018-09-23T13:22:43.214Z,20.50
2018-09-23T13:25:11.914Z,20.60
2018-09-23T13:27:40.218Z,20.60
2018-09-23T13:30:08.586Z,20.60
2018-09-23T13:32:37.217Z,20.60
2018-09-23T13:35:05.640Z,20.70
2018-09-23T13:37:34.411Z,20.90
2018-09-23T13:40:02.868Z,20.90
2018-09-23T13:42:32.287Z,20.90
2018-09-23T13:45:00.755Z,20.90
2018-09-23T13:47:29.141Z,21.00
2018-09-23T13:50:05.098Z,21.10
2018-09-23T13:52:37.911Z,21.20
2018-09-23T13:55:06.408Z,21.30
2018-09-23T13:57:34.753Z,21.40
2018-09-23T14:00:03.316Z,21.40
2018-09-23T14:02:32.533Z,21.40
2018-09-23T14:05:01.059Z,21.40
2018-09-23T14:07:29.449Z,21.40
2018-09-23T14:09:57.795Z,21.50
2018-09-23T14:12:26.779Z,21.50
2018-09-23T14:14:55.127Z,21.50
2018-09-23T14:17:23.612Z,21.70
2018-09-23T14:19:52.056Z,21.70
2018-09-23T14:22:20.470Z,21.60
2018-09-23T14:24:48.870Z,21.50
2018-09-23T14:27:17.296Z,21.60
2018-09-23T14:29:45.981Z,21.70
2018-09-23T14:32:15.121Z,21.70
2018-09-23T14:34:43.550Z,21.70
2018-09-23T14:37:12.338Z,21.80
2018-09-23T14:39:40.862Z,21.90
2018-09-23T14:42:15.959Z,21.90
2018-09-23T14:44:45.126Z,21.90
2018-09-23T14:47:13.571Z,21.90
2018-09-23T14:49:42.434Z,21.90
2018-09-23T14:52:10.748Z,21.90
2018-09-23T14:54:39.266Z,21.90
2018-09-23T14:57:07.536Z,21.90
2018-09-23T14:59:35.895Z,21.90
2018-09-23T15:02:05.443Z,22.00
2018-09-23T15:04:33.828Z,22.00
2018-09-23T15:07:02.182Z,22.00
2018-09-23T15:09:31.656Z,22.00
2018-09-23T15:12:00.083Z,22.10
2018-09-23T15:14:29.460Z,22.10
2018-09-23T15:16:58.004Z,22.00
2018-09-23T15:19:27.397Z,22.00
2018-09-23T15:21:56.867Z,22.00
2018-09-23T15:24:25.276Z,22.10
2018-09-23T15:26:53.626Z,22.10
2018-09-23T15:29:22.078Z,22.10
2018-09-23T15:31:51.649Z,22.10
2018-09-23T15:34:20.094Z,22.00
2018-09-23T15:36:48.498Z,22.10
2018-09-23T15:39:17.857Z,22.10
2018-09-23T15:41:46.237Z,22.20
2018-09-23T15:44:13.968Z,22.20
2018-09-23T15:46:41.833Z,22.20
2018-09-23T15:49:09.476Z,22.20
2018-09-23T15:51:37.101Z,22.20
2018-09-23T15:54:04.767Z,22.10
2018-09-23T15:56:32.433Z,22.10
2018-09-23T15:59:00.166Z,22.10
2018-09-23T16:01:27.757Z,22.10
2018-09-23T16:03:55.427Z,22.10
2018-09-23T16:06:23.090Z,22.00
2018-09-23T16:08:50.770Z,21.90
2018-09-23T16:11:18.439Z,21.80
2018-09-23T16:13:46.092Z,21.70
2018-09-23T16:16:16.472Z,21.30
2018-09-23T16:18:50.357Z,18.20
2018-09-23T16:21:39.273Z,17.30
2018-09-23T16:24:10.059Z,16.70
2018-09-23T16:26:41.436Z,16.50
2018-09-23T16:29:10.918Z,16.50
2018-09-23T16:31:39.309Z,16.50
2018-09-23T16:34:11.782Z,16.40
2018-09-23T16:36:41.203Z,16.20
2018-09-23T16:39:11.388Z,16.20
2018-09-23T16:41:49.502Z,16.40
2018-09-23T16:44:18.848Z,16.40
2018-09-23T16:47:03.663Z,16.30
2018-09-23T16:49:35.495Z,16.20
2018-09-23T16:52:07.852Z,16.20
2018-09-23T16:54:42.989Z,16.10
2018-09-23T16:57:17.997Z,16.00
2018-09-23T16:59:50.292Z,15.90
2018-09-23T17:02:18.744Z,16.00
2018-09-23T17:04:54.769Z,16.00
2018-09-23T17:07:43.184Z,16.00
2018-09-23T17:10:11.600Z,16.00
2018-09-23T17:12:44.000Z,16.00
2018-09-23T17:15:13.462Z,15.90
2018-09-23T17:17:42.828Z,15.80
2018-09-23T17:20:24.421Z,15.90
2018-09-23T17:22:56.299Z,15.80
2018-09-23T17:25:33.953Z,15.80
2018-09-23T17:28:05.449Z,15.80
2018-09-23T17:30:34.088Z,15.90
2018-09-23T17:33:02.693Z,15.90
2018-09-23T17:35:31.142Z,15.80
2018-09-23T17:38:01.482Z,15.80
2018-09-23T17:40:29.866Z,15.80
2018-09-23T17:42:58.223Z,15.80
2018-09-23T17:45:26.637Z,15.70
2018-09-23T17:47:54.999Z,15.80
2018-09-23T17:50:23.621Z,15.80
2018-09-23T17:52:53.032Z,15.80
2018-09-23T17:55:21.380Z,15.70
2018-09-23T17:57:49.785Z,15.70
2018-09-23T18:00:18.159Z,15.70
2018-09-23T18:02:46.662Z,15.70
2018-09-23T18:05:16.035Z,15.70
2018-09-23T18:07:44.694Z,15.70
2018-09-23T18:10:14.138Z,15.70
2018-09-23T18:12:49.727Z,15.60
2018-09-23T18:15:18.477Z,15.60
2018-09-23T18:17:46.865Z,15.60
2018-09-23T18:20:17.256Z,15.60
2018-09-23T18:22:49.633Z,15.60
2018-09-23T18:25:28.648Z,15.60
2018-09-23T18:27:57.138Z,15.60
2018-09-23T18:30:26.580Z,15.50
2018-09-23T18:32:55.037Z,15.50
2018-09-23T18:35:23.497Z,15.40
2018-09-23T18:37:51.962Z,15.50
2018-09-23T18:40:20.368Z,15.50
2018-09-23T18:43:01.056Z,15.50
2018-09-23T18:45:33.326Z,15.40
2018-09-23T18:48:07.541Z,15.40
2018-09-23T18:50:39.873Z,15.30
2018-09-23T18:53:19.769Z,15.40
2018-09-23T18:55:54.359Z,15.40
2018-09-23T18:58:22.799Z,15.30
2018-09-23T19:00:51.308Z,15.20
2018-09-23T19:03:19.785Z,15.00
2018-09-23T19:05:48.061Z,14.80
2018-09-23T19:08:16.461Z,14.80
2018-09-23T19:10:44.899Z,14.70
2018-09-23T19:13:22.530Z,14.60
2018-09-23T19:15:56.388Z,14.50
2018-09-23T19:18:24.801Z,14.50
2018-09-23T19:20:53.287Z,14.30
2018-09-23T19:23:21.691Z,14.30
2018-09-23T19:25:52.132Z,14.20
2018-09-23T19:28:22.556Z,14.30
2018-09-23T19:30:51.998Z,14.20
2018-09-23T19:33:22.407Z,14.20
2018-09-23T19:35:50.802Z,14.20
2018-09-23T19:38:20.160Z,14.10
2018-09-23T19:40:49.634Z,14.00
2018-09-23T19:43:19.768Z,13.90
2018-09-23T19:45:48.210Z,13.90
2018-09-23T19:48:17.667Z,13.80
2018-09-23T19:50:46.071Z,13.70
2018-09-23T19:53:14.432Z,13.70
2018-09-23T19:55:43.095Z,13.90
2018-09-23T19:58:11.625Z,13.90
2018-09-23T20:00:43.278Z,13.90
2018-09-23T20:03:12.046Z,13.70
2018-09-23T20:05:41.353Z,13.50
2018-09-23T20:08:09.711Z,13.60
2018-09-23T20:10:38.301Z,13.50
2018-09-23T20:13:06.670Z,13.30
2018-09-23T20:15:35.093Z,13.10
2018-09-23T20:18:03.435Z,12.90
2018-09-23T20:20:36.251Z,12.80
2018-09-23T20:23:04.724Z,12.70
2018-09-23T20:25:33.098Z,12.50
2018-09-23T20:28:02.020Z,12.20
2018-09-23T20:30:30.474Z,12.20
2018-09-23T20:32:58.958Z,12.20
2018-09-23T20:35:27.272Z,12.10
2018-09-23T20:37:55.673Z,11.90
2018-09-23T20:40:24.168Z,11.80
2018-09-23T20:42:52.584Z,11.70
2018-09-23T20:45:21.024Z,11.70
2018-09-23T20:47:50.145Z,11.80
2018-09-23T20:50:18.601Z,11.60
2018-09-23T20:52:47.041Z,11.50
2018-09-23T20:55:16.358Z,11.50
2018-09-23T20:57:45.055Z,11.50
2018-09-23T21:00:13.470Z,11.70
2018-09-23T21:02:41.928Z,11.60
2018-09-23T21:05:10.391Z,11.70
2018-09-23T21:07:38.845Z,11.70
2018-09-23T21:10:07.339Z,11.70
2018-09-23T21:12:35.736Z,11.50
2018-09-23T21:15:05.476Z,11.40
2018-09-23T21:17:33.910Z,11.40
2018-09-23T21:20:02.495Z,11.60
2018-09-23T21:22:30.941Z,11.60
2018-09-23T21:24:59.339Z,11.60
2018-09-23T21:27:28.337Z,11.50
2018-09-23T21:29:56.811Z,11.50
2018-09-23T21:32:25.617Z,11.40
2018-09-23T21:34:54.098Z,11.50
2018-09-23T21:37:23.404Z,11.50
2018-09-23T21:39:51.948Z,11.50
2018-09-23T21:42:20.490Z,11.40
2018-09-23T21:44:48.917Z,11.40
2018-09-23T21:47:17.376Z,11.20
2018-09-23T21:49:45.807Z,11.10
2018-09-23T21:52:14.246Z,11.20
2018-09-23T21:54:42.595Z,11.10
2018-09-23T21:57:11.176Z,11.10
2018-09-23T21:59:39.644Z,11.10
2018-09-23T22:02:08.344Z,11.20
2018-09-23T22:04:36.781Z,11.20
2018-09-23T22:07:07.955Z,11.10
2018-09-23T22:09:36.408Z,10.90
2018-09-23T22:12:04.974Z,10.90
2018-09-23T22:14:33.336Z,10.80
2018-09-23T22:17:01.813Z,10.80
2018-09-23T22:19:30.225Z,10.80
2018-09-23T22:21:59.085Z,10.80
2018-09-23T22:24:27.435Z,10.70
2018-09-23T22:26:57.180Z,10.60
2018-09-23T22:29:25.604Z,10.50
2018-09-23T22:31:54.095Z,10.50
2018-09-23T22:34:22.498Z,10.60
2018-09-23T22:36:51.005Z,10.50
2018-09-23T22:39:19.342Z,10.50
2018-09-23T22:41:47.812Z,10.60
2018-09-23T22:44:16.220Z,10.50
2018-09-23T22:46:45.614Z,10.40
2018-09-23T22:49:14.036Z,10.30
2018-09-23T22:51:43.900Z,10.30
2018-09-23T22:54:12.537Z,10.20
2018-09-23T22:56:41.035Z,10.20
2018-09-23T22:59:09.475Z,10.30
2018-09-23T23:01:38.205Z,10.40
2018-09-23T23:04:07.374Z,10.40
2018-09-23T23:06:36.556Z,10.40
2018-09-23T23:09:07.857Z,10.40
2018-09-23T23:11:36.428Z,10.50
2018-09-23T23:14:05.139Z,10.50
2018-09-23T23:16:34.811Z,10.50
2018-09-23T23:19:03.246Z,10.40
2018-09-23T23:21:31.645Z,10.50
2018-09-23T23:24:00.003Z,10.50
2018-09-23T23:26:28.361Z,10.50
2018-09-23T23:28:56.734Z,10.40
2018-09-23T23:31:25.168Z,10.40
2018-09-23T23:33:53.581Z,10.40
2018-09-23T23:36:22.000Z,10.30
2018-09-23T23:38:50.523Z,10.30
2018-09-23T23:41:18.845Z,10.10
2018-09-23T23:43:47.278Z,10.10
2018-09-23T23:46:15.793Z,10.20
2018-09-23T23:48:44.228Z,10.20
2018-09-23T23:51:12.669Z,10.30
2018-09-23T23:53:41.209Z,10.30
2018-09-23T23:56:09.664Z,10.20
2018-09-23T23:58:38.030Z,10.20
